Time;durP1;ratioP1;P1;durP2;ratioP2;P2;SDS_P1;SDS_P2;PMS_P1;PMS_P2;Temp;Humidity;BMP_temperature;BMP_pressure;BME280_temperature;BME280_humidity;BME280_pressure;Samples;Min_cycle;Max_cycle;Signal;HPM_P1;HPM_P2
2024/01/16 00:01:08;;;;;;;14.70;7.10;;;;;;;1.88;53.17;98637.88;104985;1266;59730;-59
2024/01/16 00:03:38;;;;;;;12.40;5.80;;;;;;;1.87;53.20;98637.93;104853;1262;64133;-57
2024/01/16 00:06:06;;;;;;;14.20;6.40;;;;;;;1.87;53.27;98633.06;105162;1262;61501;-58
2024/01/16 00:08:34;;;;;;;15.40;6.70;;;;;;;1.88;53.19;98623.16;105196;1263;62531;-58
2024/01/16 00:11:03;;;;;;;12.20;5.90;;;;;;;1.89;53.17;98614.95;104792;1263;59677;-59
2024/01/16 00:13:32;;;;;;;13.60;4.50;;;;;;;1.89;53.22;98607.67;105249;1265;59592;-57
2024/01/16 00:16:04;;;;;;;12.60;4.80;;;;;;;1.90;53.22;98602.11;105321;1265;64598;-59
2024/01/16 00:18:31;;;;;;;8.00;4.00;;;;;;;1.97;53.10;98599.83;105241;1260;61560;-59
2024/01/16 00:21:02;;;;;;;8.40;3.30;;;;;;;2.07;52.94;98600.69;105284;1260;63882;-59
2024/01/16 00:23:32;;;;;;;11.50;4.10;;;;;;;2.16;52.78;98599.34;105348;1263;59639;-59
2024/01/16 00:26:00;;;;;;;12.70;4.10;;;;;;;2.26;52.72;98601.56;104822;1265;59682;-59
2024/01/16 00:28:28;;;;;;;15.80;5.20;;;;;;;2.35;52.59;98602.77;104795;1262;62892;-60
2024/01/16 00:30:56;;;;;;;12.60;5.50;;;;;;;2.45;52.35;98609.30;104836;1263;61346;-59
2024/01/16 00:33:23;;;;;;;13.10;5.40;;;;;;;2.51;52.22;98612.66;104773;1263;63773;-59
2024/01/16 00:35:51;;;;;;;17.30;6.60;;;;;;;2.50;52.11;98608.02;104853;1262;59914;-59
2024/01/16 00:38:19;;;;;;;12.30;6.20;;;;;;;2.48;52.10;98606.47;104823;1260;59763;-60
2024/01/16 00:40:47;;;;;;;17.60;7.40;;;;;;;2.49;51.96;98609.02;104831;1265;62864;-61
2024/01/16 00:43:14;;;;;;;15.90;7.90;;;;;;;2.47;51.86;98604.81;104924;1260;63254;-62
2024/01/16 00:45:42;;;;;;;14.80;6.70;;;;;;;2.44;51.85;98607.65;104818;1265;63767;-61
2024/01/16 00:48:13;;;;;;;15.50;6.80;;;;;;;2.39;51.79;98605.93;104792;1261;59691;-60
2024/01/16 00:50:41;;;;;;;13.40;5.80;;;;;;;2.34;51.87;98609.22;105098;1265;59764;-60
2024/01/16 00:53:09;;;;;;;12.10;5.50;;;;;;;2.32;51.98;98612.16;105034;1261;62811;-61
2024/01/16 00:55:37;;;;;;;11.10;5.50;;;;;;;2.30;51.99;98613.89;104771;1262;61341;-62
2024/01/16 00:58:04;;;;;;;13.20;6.50;;;;;;;2.27;51.93;98615.98;104829;1262;63710;-63
2024/01/16 01:00:33;;;;;;;15.40;6.90;;;;;;;2.24;51.95;98618.14;105290;1263;59550;-62
2024/01/16 01:03:01;;;;;;;15.90;6.70;;;;;;;2.22;51.96;98626.40;105194;1262;59654;-59
2024/01/16 01:05:28;;;;;;;19.20;7.50;;;;;;;2.22;52.00;98614.81;105389;1265;64168;-56
2024/01/16 01:07:56;;;;;;;14.80;5.30;;;;;;;2.21;52.05;98614.00;104824;1262;61385;-60
2024/01/16 01:10:24;;;;;;;13.90;6.20;;;;;;;2.21;52.09;98615.70;105451;1265;64228;-63
2024/01/16 01:12:53;;;;;;;19.10;7.90;;;;;;;2.21;52.22;98614.54;105671;1265;59590;-60
2024/01/16 01:15:21;;;;;;;12.90;5.80;;;;;;;2.20;52.11;98608.36;104781;1265;59628;-58
2024/01/16 01:17:49;;;;;;;16.20;8.30;;;;;;;2.19;52.15;98611.35;105588;1265;64624;-58
2024/01/16 01:20:17;;;;;;;16.00;6.20;;;;;;;2.19;52.28;98609.49;104845;1262;61581;-60
2024/01/16 01:22:45;;;;;;;12.50;6.80;;;;;;;2.18;52.28;98608.52;105001;1262;63785;-57
2024/01/16 01:25:12;;;;;;;13.80;5.80;;;;;;;2.18;52.30;98611.14;105439;1256;59704;-58
2024/01/16 01:27:40;;;;;;;13.60;6.80;;;;;;;2.17;52.38;98611.67;105135;1262;60604;-57
2024/01/16 01:30:11;;;;;;;14.20;6.00;;;;;;;2.16;52.37;98610.52;105316;1261;64220;-57
2024/01/16 01:32:39;;;;;;;14.70;7.10;;;;;;;2.18;52.38;98614.60;105160;1257;61326;-59
2024/01/16 01:35:07;;;;;;;11.80;5.70;;;;;;;2.17;52.34;98613.98;105404;1261;63766;-58
2024/01/16 01:37:35;;;;;;;13.50;6.00;;;;;;;2.14;52.31;98614.34;105117;1259;59768;-58
2024/01/16 01:40:03;;;;;;;14.50;6.40;;;;;;;2.12;52.37;98620.88;105171;1256;59749;-58
2024/01/16 01:42:30;;;;;;;12.90;5.90;;;;;;;2.10;52.35;98624.37;105541;1257;64154;-58
2024/01/16 01:44:58;;;;;;;13.80;5.50;;;;;;;2.07;52.36;98621.08;105618;1259;62163;-57
2024/01/16 01:47:26;;;;;;;16.40;6.30;;;;;;;2.03;52.33;98616.84;105095;1257;63751;-57
2024/01/16 01:49:53;;;;;;;17.50;6.60;;;;;;;2.00;52.44;98630.90;105716;1257;59735;-57
2024/01/16 01:52:21;;;;;;;16.10;6.90;;;;;;;1.96;52.51;98645.90;105087;1256;59648;-59
2024/01/16 01:54:49;;;;;;;15.90;6.00;;;;;;;1.93;52.52;98644.27;105012;1260;64300;-58
2024/01/16 01:57:16;;;;;;;12.50;5.30;;;;;;;1.90;52.59;98637.69;104828;1264;62098;-58
2024/01/16 01:59:44;;;;;;;16.50;6.70;;;;;;;1.91;52.61;98632.66;105075;1262;62524;-60
2024/01/16 02:02:12;;;;;;;14.40;6.00;;;;;;;1.91;52.65;98631.08;105225;1256;59640;-59
2024/01/16 02:04:40;;;;;;;14.70;6.60;;;;;;;1.83;52.82;98625.39;105066;1259;59755;-59
2024/01/16 02:07:07;;;;;;;12.60;5.70;;;;;;;1.87;52.85;98617.20;105108;1264;75606;-59
2024/01/16 02:09:35;;;;;;;11.40;4.30;;;;;;;1.95;52.86;98618.31;105342;1257;61381;-59
2024/01/16 02:12:05;;;;;;;10.50;4.20;;;;;;;2.03;52.63;98617.77;105409;1261;62579;-59
2024/01/16 02:14:33;;;;;;;12.60;5.20;;;;;;;2.09;52.58;98616.42;105590;1256;59648;-59
2024/01/16 02:17:00;;;;;;;12.70;5.80;;;;;;;2.15;52.51;98620.14;105696;1257;59724;-58
2024/01/16 02:19:28;;;;;;;13.10;5.70;;;;;;;2.18;52.52;98618.40;105227;1260;64628;-57
2024/01/16 02:22:01;;;;;;;13.30;5.90;;;;;;;2.17;52.58;98609.27;105181;1262;60145;-58
2024/01/16 02:24:28;;;;;;;14.70;5.60;;;;;;;2.16;52.48;98605.21;105641;1256;63735;-57
2024/01/16 02:26:56;;;;;;;14.60;5.90;;;;;;;2.13;52.52;98612.52;105146;1256;59676;-61
2024/01/16 02:29:24;;;;;;;14.10;5.30;;;;;;;2.13;52.53;98614.42;105182;1262;59562;-60
2024/01/16 02:31:52;;;;;;;12.50;7.10;;;;;;;2.11;52.42;98623.36;105866;1259;64271;-61
2024/01/16 02:34:19;;;;;;;15.80;8.70;;;;;;;2.09;52.44;98626.33;105275;1257;61381;-58
2024/01/16 02:36:47;;;;;;;17.00;7.30;;;;;;;2.06;52.53;98625.16;105199;1256;63715;-56
2024/01/16 02:39:14;;;;;;;11.60;5.80;;;;;;;2.03;52.62;98625.17;105181;1257;59728;-61
2024/01/16 02:41:42;;;;;;;17.40;7.50;;;;;;;2.02;52.64;98624.56;105193;1256;59581;-61
2024/01/16 02:44:10;;;;;;;17.20;8.20;;;;;;;2.02;52.51;98629.55;105426;1260;64042;-61
2024/01/16 02:46:38;;;;;;;18.00;6.40;;;;;;;1.99;52.50;98634.81;105222;1257;61347;-60
2024/01/16 02:49:07;;;;;;;13.70;7.40;;;;;;;1.95;52.63;98628.67;105259;1256;64593;-60
2024/01/16 02:51:35;;;;;;;15.00;6.00;;;;;;;1.90;52.66;98623.14;105453;1257;60986;-59
2024/01/16 02:54:02;;;;;;;13.60;6.30;;;;;;;1.84;52.72;98622.89;105195;1259;60470;-60
2024/01/16 02:56:30;;;;;;;12.90;4.60;;;;;;;1.79;52.78;98628.08;105200;1261;65000;-59
2024/01/16 02:58:57;;;;;;;14.50;7.00;;;;;;;1.75;52.80;98632.02;105248;1256;61503;-58
2024/01/16 03:01:25;;;;;;;18.20;7.50;;;;;;;1.71;52.85;98634.23;105222;1256;63820;-59
2024/01/16 03:03:52;;;;;;;10.90;5.50;;;;;;;1.66;53.03;98628.69;105160;1256;60447;-59
2024/01/16 03:06:28;;;;;;;13.90;5.50;;;;;;;1.62;53.11;98622.54;105903;1256;60527;-59
2024/01/16 03:08:56;;;;;;;14.50;5.60;;;;;;;1.58;53.20;98621.27;105819;1257;63668;-57
2024/01/16 03:11:24;;;;;;;14.90;5.80;;;;;;;1.55;53.29;98631.21;105157;1256;61511;-58
2024/01/16 03:13:53;;;;;;;13.80;6.60;;;;;;;1.50;53.34;98636.88;105836;1257;63767;-59
2024/01/16 03:16:21;;;;;;;13.90;7.30;;;;;;;1.48;53.42;98641.52;105198;1256;60470;-58
2024/01/16 03:18:49;;;;;;;16.20;5.80;;;;;;;1.46;53.48;98646.48;105207;1261;60514;-58
2024/01/16 03:21:16;;;;;;;15.40;5.80;;;;;;;1.45;53.53;98643.16;105278;1259;64858;-57
2024/01/16 03:23:44;;;;;;;15.00;6.80;;;;;;;1.46;53.53;98638.27;105171;1256;61316;-56
2024/01/16 03:26:15;;;;;;;14.20;7.20;;;;;;;1.45;53.53;98638.82;105171;1256;62478;-57
2024/01/16 03:28:43;;;;;;;14.40;6.70;;;;;;;1.44;53.47;98640.43;105233;1261;60547;-60
2024/01/16 03:31:12;;;;;;;9.20;3.40;;;;;;;1.48;53.46;98642.09;105210;1256;60559;-60
2024/01/16 03:33:42;;;;;;;14.70;5.50;;;;;;;1.57;53.43;98635.23;105362;1256;63709;-60
2024/01/16 03:36:12;;;;;;;12.00;5.60;;;;;;;1.65;53.23;98632.39;105423;1260;61616;-59
2024/01/16 03:38:42;;;;;;;9.90;4.50;;;;;;;1.72;53.13;98628.46;105397;1259;63701;-61
2024/01/16 03:41:13;;;;;;;15.30;5.30;;;;;;;1.77;53.00;98632.77;105346;1260;62796;-60
2024/01/16 03:43:40;;;;;;;13.20;5.50;;;;;;;1.83;52.91;98638.39;105265;1260;60567;-61
2024/01/16 03:46:10;;;;;;;11.80;5.00;;;;;;;1.86;52.90;98636.09;105283;1262;64927;-60
2024/01/16 03:48:39;;;;;;;14.70;5.90;;;;;;;1.86;52.79;98633.45;105422;1258;61616;-59
2024/01/16 03:51:07;;;;;;;17.00;8.40;;;;;;;1.84;52.75;98629.29;105446;1257;62518;-58
2024/01/16 03:53:34;;;;;;;19.40;8.20;;;;;;;1.81;52.66;98628.80;105462;1256;60594;-65
2024/01/16 03:56:02;;;;;;;14.70;6.70;;;;;;;1.76;52.68;98631.24;105162;1259;60305;-60
2024/01/16 03:58:29;;;;;;;16.90;7.90;;;;;;;1.71;52.72;98631.14;105231;1257;65239;-60
2024/01/16 04:00:57;;;;;;;19.20;7.60;;;;;;;1.66;52.77;98633.52;105587;1257;61794;-57
2024/01/16 04:03:24;;;;;;;17.10;6.60;;;;;;;1.63;52.83;98630.23;105078;1257;64323;-61
2024/01/16 04:05:52;;;;;;;22.50;8.90;;;;;;;1.61;52.81;98631.06;105219;1258;60893;-59
2024/01/16 04:08:20;;;;;;;31.70;15.20;;;;;;;1.58;52.77;98629.23;105174;1262;60813;-60
2024/01/16 04:10:47;;;;;;;30.10;13.40;;;;;;;1.55;52.77;98626.41;105090;1260;64862;-60
2024/01/16 04:13:16;;;;;;;19.20;9.00;;;;;;;1.51;52.93;98630.09;105327;1258;61450;-60
2024/01/16 04:15:43;;;;;;;45.70;21.70;;;;;;;1.46;52.93;98636.64;105234;1258;62537;-61
2024/01/16 04:18:11;;;;;;;50.10;20.10;;;;;;;1.40;53.07;98643.13;105297;1256;60552;-59
2024/01/16 04:20:38;;;;;;;32.80;12.30;;;;;;;1.36;53.13;98643.27;105211;1257;60537;-60
2024/01/16 04:23:06;;;;;;;28.10;12.00;;;;;;;1.34;53.16;98646.98;105220;1259;64891;-58
2024/01/16 04:25:34;;;;;;;29.40;13.70;;;;;;;1.32;53.22;98645.77;105564;1257;60499;-58
2024/01/16 04:28:02;;;;;;;22.20;9.80;;;;;;;1.31;53.31;98641.52;105186;1262;63791;-61
2024/01/16 04:30:30;;;;;;;26.80;10.60;;;;;;;1.29;53.32;98642.50;105687;1261;60563;-57
2024/01/16 04:32:57;;;;;;;22.60;8.80;;;;;;;1.27;53.34;98642.67;105653;1256;60499;-58
2024/01/16 04:35:25;;;;;;;23.20;8.20;;;;;;;1.25;53.39;98639.70;105245;1256;74369;-58
2024/01/16 04:37:53;;;;;;;16.20;7.50;;;;;;;1.24;53.41;98643.56;105170;1256;61325;-58
2024/01/16 04:40:21;;;;;;;13.50;7.40;;;;;;;1.24;53.47;98647.39;105176;1257;63744;-57
2024/01/16 04:42:49;;;;;;;16.20;8.40;;;;;;;1.23;53.46;98652.45;105302;1257;60685;-59
2024/01/16 04:45:17;;;;;;;16.60;5.80;;;;;;;1.21;53.46;98654.45;105176;1259;60511;-65
2024/01/16 04:47:44;;;;;;;12.40;5.00;;;;;;;1.23;53.45;98656.19;105179;1256;64970;-64
2024/01/16 04:50:12;;;;;;;12.50;4.80;;;;;;;1.34;53.26;98655.48;105197;1262;61837;-60
2024/01/16 04:52:39;;;;;;;12.90;5.90;;;;;;;1.42;53.05;98652.48;105283;1260;63780;-61
2024/01/16 04:55:07;;;;;;;12.80;4.40;;;;;;;1.48;52.97;98651.02;105124;1260;60424;-63
2024/01/16 04:57:35;;;;;;;12.90;5.70;;;;;;;1.55;52.96;98651.45;105198;1255;60553;-61
2024/01/16 05:00:06;;;;;;;11.50;5.10;;;;;;;1.59;52.90;98651.46;105225;1260;64895;-59
2024/01/16 05:02:34;;;;;;;15.50;6.30;;;;;;;1.61;52.85;98649.98;105491;1256;61518;-59
2024/01/16 05:05:03;;;;;;;16.80;8.40;;;;;;;1.61;52.71;98656.34;106519;1260;62487;-57
2024/01/16 05:07:31;;;;;;;14.30;5.80;;;;;;;1.59;52.64;98657.51;105303;1258;60639;-57
2024/01/16 05:09:58;;;;;;;14.40;6.50;;;;;;;1.58;52.56;98654.16;105205;1257;60611;-57
2024/01/16 05:12:26;;;;;;;20.00;8.40;;;;;;;1.58;52.59;98653.77;105172;1256;65375;-60
2024/01/16 05:14:54;;;;;;;15.70;7.00;;;;;;;1.58;52.49;98657.27;105232;1258;62477;-60
2024/01/16 05:17:23;;;;;;;20.90;9.30;;;;;;;1.56;52.37;98656.20;105877;1259;63635;-59
2024/01/16 05:19:51;;;;;;;39.80;17.90;;;;;;;1.52;52.38;98656.27;105930;1259;61409;-60
2024/01/16 05:22:18;;;;;;;44.10;18.60;;;;;;;1.48;52.44;98659.51;105902;1258;60498;-59
2024/01/16 05:24:46;;;;;;;38.50;16.50;;;;;;;1.45;52.44;98660.05;105206;1260;64926;-60
2024/01/16 05:27:14;;;;;;;27.40;16.00;;;;;;;1.42;52.53;98664.38;105222;1260;61376;-61
2024/01/16 05:29:41;;;;;;;17.50;7.80;;;;;;;1.41;52.56;98663.80;105353;1260;63851;-61
2024/01/16 05:32:12;;;;;;;16.00;7.80;;;;;;;1.38;52.50;98666.77;105338;1259;60541;-60
2024/01/16 05:34:39;;;;;;;14.70;5.90;;;;;;;1.36;52.58;98668.80;105312;1257;60470;-58
2024/01/16 05:37:07;;;;;;;14.60;8.00;;;;;;;1.35;52.65;98669.05;105498;1258;63622;-60
2024/01/16 05:39:35;;;;;;;11.60;6.30;;;;;;;1.35;52.70;98671.66;105100;1259;61652;-60
2024/01/16 05:42:03;;;;;;;15.00;6.40;;;;;;;1.35;52.62;98666.13;105291;1260;62612;-60
2024/01/16 05:44:30;;;;;;;14.00;5.70;;;;;;;1.34;52.53;98672.96;105219;1257;61706;-61
2024/01/16 05:46:58;;;;;;;12.00;5.40;;;;;;;1.34;52.62;98677.80;105140;1261;64039;-61
2024/01/16 05:49:26;;;;;;;12.60;6.00;;;;;;;1.34;52.66;98680.20;105287;1257;63750;-57
2024/01/16 05:51:53;;;;;;;17.10;6.90;;;;;;;1.34;52.61;98677.43;105172;1260;61585;-60
2024/01/16 05:54:21;;;;;;;11.60;5.40;;;;;;;1.33;52.54;98679.41;105082;1260;71661;-61
2024/01/16 05:56:49;;;;;;;14.10;6.20;;;;;;;1.32;52.56;98679.14;105091;1260;60649;-61
2024/01/16 05:59:17;;;;;;;12.60;5.20;;;;;;;1.33;52.46;98687.17;105826;1260;59260;-60
2024/01/16 06:01:45;;;;;;;13.80;6.00;;;;;;;1.35;52.40;98687.06;105063;1257;63890;-60
2024/01/16 06:04:13;;;;;;;10.90;6.50;;;;;;;1.33;52.40;98689.76;105231;1257;61483;-60
2024/01/16 06:06:45;;;;;;;12.70;6.60;;;;;;;1.34;52.42;98696.30;105093;1260;64250;-60
2024/01/16 06:09:14;;;;;;;12.40;5.20;;;;;;;1.39;52.25;98707.48;105165;1259;60559;-60
2024/01/16 06:11:41;;;;;;;12.40;5.90;;;;;;;1.50;52.01;98712.25;105952;1257;60558;-59
2024/01/16 06:14:09;;;;;;;17.20;6.30;;;;;;;1.58;51.88;98712.36;105341;1256;64888;-60
2024/01/16 06:16:37;;;;;;;14.70;5.80;;;;;;;1.65;51.78;98715.67;105395;1260;60527;-62
2024/01/16 06:19:05;;;;;;;18.30;4.80;;;;;;;1.67;51.67;98718.13;105525;1260;63765;-60
2024/01/16 06:21:32;;;;;;;15.80;6.80;;;;;;;1.65;51.62;98719.88;105097;1262;60480;-59
2024/01/16 06:24:00;;;;;;;13.20;6.00;;;;;;;1.61;51.61;98724.59;105119;1257;60492;-58
2024/01/16 06:26:28;;;;;;;17.10;6.20;;;;;;;1.59;51.63;98728.04;105190;1258;64188;-59
2024/01/16 06:28:56;;;;;;;15.10;6.30;;;;;;;1.57;51.72;98726.66;105675;1259;60517;-59
2024/01/16 06:31:27;;;;;;;14.60;6.10;;;;;;;1.53;51.60;98728.28;105745;1260;62561;-60
2024/01/16 06:33:56;;;;;;;14.30;5.60;;;;;;;1.53;51.61;98727.64;106708;1259;60493;-64
2024/01/16 06:36:24;;;;;;;10.50;4.90;;;;;;;1.61;51.43;98724.12;105882;1257;60498;-69
2024/01/16 06:38:53;;;;;;;13.10;6.20;;;;;;;1.67;51.12;98718.51;105912;1257;64857;-65
2024/01/16 06:41:21;;;;;;;17.00;7.40;;;;;;;1.67;51.23;98721.64;104949;1259;61500;-68
2024/01/16 06:43:49;;;;;;;14.70;6.00;;;;;;;1.68;51.19;98720.02;105198;1260;74654;-65
2024/01/16 06:46:16;;;;;;;15.80;6.70;;;;;;;1.66;51.08;98723.22;105024;1259;60566;-69
2024/01/16 06:48:44;;;;;;;14.20;5.90;;;;;;;1.64;51.10;98719.88;104968;1260;60336;-63
2024/01/16 06:51:13;;;;;;;12.80;5.90;;;;;;;1.63;51.13;98719.80;105083;1260;65029;-61
2024/01/16 06:53:41;;;;;;;16.50;6.80;;;;;;;1.61;51.15;98723.95;105059;1257;69940;-61
2024/01/16 06:56:08;;;;;;;18.00;7.20;;;;;;;1.61;51.16;98726.70;104998;1263;63744;-61
2024/01/16 06:58:36;;;;;;;13.20;5.60;;;;;;;1.61;51.13;98725.27;106144;1260;60540;-64
2024/01/16 07:01:04;;;;;;;14.70;6.60;;;;;;;1.62;51.04;98722.27;105487;1260;60709;-59
2024/01/16 07:03:32;;;;;;;15.10;6.70;;;;;;;1.65;50.96;98728.52;106265;1257;63774;-60
2024/01/16 07:05:59;;;;;;;21.70;7.60;;;;;;;1.64;50.86;98732.40;105031;1258;61440;-60
2024/01/16 07:08:27;;;;;;;19.30;7.60;;;;;;;1.63;50.91;98736.23;105134;1259;63850;-62
2024/01/16 07:10:56;;;;;;;15.90;6.70;;;;;;;1.63;50.87;98737.31;105518;1258;60489;-69
2024/01/16 07:13:24;;;;;;;17.20;7.00;;;;;;;1.62;50.78;98743.35;106606;1260;60912;-69
2024/01/16 07:15:52;;;;;;;16.60;7.30;;;;;;;1.63;50.92;98742.97;105121;1258;76082;-70
2024/01/16 07:18:19;;;;;;;11.80;5.70;;;;;;;1.66;50.85;98747.45;105246;1258;61365;-69
2024/01/16 07:20:47;;;;;;;15.90;5.90;;;;;;;1.69;50.73;98745.03;105910;1258;72768;-69
2024/01/16 07:23:15;;;;;;;16.10;6.10;;;;;;;1.71;50.81;98750.58;105100;1257;60545;-66
2024/01/16 07:25:43;;;;;;;9.80;5.00;;;;;;;1.72;50.66;98745.63;105044;1261;60312;-66
2024/01/16 07:28:10;;;;;;;10.30;4.90;;;;;;;1.74;50.67;98739.11;105068;1261;64989;-68
2024/01/16 07:30:38;;;;;;;14.00;6.50;;;;;;;1.77;50.63;98746.49;105244;1258;61375;-65
2024/01/16 07:33:06;;;;;;;15.00;6.10;;;;;;;1.79;50.62;98746.88;105125;1259;62475;-69
2024/01/16 07:35:33;;;;;;;20.30;9.60;;;;;;;1.79;50.45;98747.73;106257;1257;60529;-69
2024/01/16 07:38:01;;;;;;;14.30;6.10;;;;;;;1.81;50.42;98744.64;106352;1260;60556;-66
2024/01/16 07:40:32;;;;;;;15.10;5.90;;;;;;;1.83;50.35;98748.86;105095;1262;63695;-74
2024/01/16 07:42:59;;;;;;;14.90;7.10;;;;;;;1.83;50.27;98749.85;105156;1260;60448;-62
2024/01/16 07:45:27;;;;;;;14.70;5.60;;;;;;;1.86;50.22;98754.15;105033;1259;63729;-62
2024/01/16 07:47:54;;;;;;;13.90;5.30;;;;;;;1.88;50.17;98755.63;105110;1261;60393;-60
2024/01/16 07:50:22;;;;;;;14.80;6.50;;;;;;;1.90;50.14;98761.05;105168;1261;60911;-63
2024/01/16 07:52:50;;;;;;;11.40;5.20;;;;;;;1.93;50.11;98756.45;105082;1255;63710;-61
2024/01/16 07:55:18;;;;;;;14.10;5.90;;;;;;;1.95;50.06;98758.54;105028;1259;60690;-61
2024/01/16 07:57:49;;;;;;;13.00;6.00;;;;;;;1.97;49.89;98760.86;105109;1260;63694;-63
2024/01/16 08:00:18;;;;;;;17.60;6.00;;;;;;;2.01;49.89;98761.10;105191;1262;60499;-63
2024/01/16 08:02:45;;;;;;;13.70;6.10;;;;;;;2.05;49.81;98762.73;105926;1257;60502;-63
2024/01/16 08:05:13;;;;;;;13.40;4.80;;;;;;;2.07;49.55;98765.48;105152;1254;74408;-65
2024/01/16 08:07:44;;;;;;;11.90;5.60;;;;;;;2.10;49.45;98775.33;105052;1257;72940;-61
2024/01/16 08:10:11;;;;;;;14.70;5.70;;;;;;;2.13;49.48;98779.98;105019;1257;64799;-62
2024/01/16 08:12:41;;;;;;;12.20;4.80;;;;;;;2.15;49.24;98769.62;108666;1254;59207;-60
2024/01/16 08:15:09;;;;;;;11.50;5.10;;;;;;;2.17;49.21;98775.84;105036;1261;60625;-58
2024/01/16 08:17:37;;;;;;;14.80;6.40;;;;;;;2.19;49.24;98772.43;105070;1258;64856;-58
2024/01/16 08:20:06;;;;;;;11.00;4.10;;;;;;;2.21;49.26;98771.95;109016;1257;61575;-58
2024/01/16 08:22:33;;;;;;;11.20;6.20;;;;;;;2.25;49.10;98779.99;107880;1257;72653;-59
2024/01/16 08:25:01;;;;;;;15.40;5.10;;;;;;;2.28;48.94;98774.78;105019;1257;60499;-57
2024/01/16 08:27:29;;;;;;;11.40;4.60;;;;;;;2.29;48.90;98779.34;105032;1257;60355;-57
2024/01/16 08:29:56;;;;;;;10.50;5.20;;;;;;;2.30;48.85;98778.06;105092;1258;72709;-57
2024/01/16 08:32:24;;;;;;;11.90;4.60;;;;;;;2.33;49.00;98770.90;105850;1257;68907;-58
2024/01/16 08:34:52;;;;;;;13.10;4.80;;;;;;;2.37;48.77;98775.34;105871;1260;72871;-57
2024/01/16 08:37:20;;;;;;;9.60;5.20;;;;;;;2.38;48.49;98776.24;105052;1262;60562;-56
2024/01/16 08:39:47;;;;;;;10.60;4.70;;;;;;;2.40;48.37;98775.43;105185;1261;60515;-58
2024/01/16 08:42:15;;;;;;;9.90;4.50;;;;;;;2.41;48.14;98777.98;105129;1260;76043;-59
2024/01/16 08:44:43;;;;;;;12.50;4.60;;;;;;;2.43;48.16;98778.04;105356;1255;70121;-63
2024/01/16 08:47:11;;;;;;;9.10;3.10;;;;;;;2.45;47.91;98781.48;105335;1258;72810;-60
2024/01/16 08:49:39;;;;;;;11.20;4.60;;;;;;;2.49;47.47;98782.27;105142;1257;60468;-69
2024/01/16 08:52:07;;;;;;;11.00;3.20;;;;;;;2.55;47.12;98787.16;105399;1260;61356;-63
2024/01/16 08:54:35;;;;;;;7.80;3.20;;;;;;;2.63;46.90;98785.55;105119;1257;72670;-64
2024/01/16 08:57:04;;;;;;;10.50;3.90;;;;;;;2.70;46.04;98792.52;105146;1260;61852;-63
2024/01/16 08:59:32;;;;;;;7.90;2.60;;;;;;;2.76;45.28;98793.79;107034;1256;64679;-67
2024/01/16 09:02:00;;;;;;;7.50;2.90;;;;;;;2.77;44.29;98800.11;105656;1257;61467;-62
2024/01/16 09:04:29;;;;;;;8.00;2.70;;;;;;;2.80;44.23;98790.56;105426;1261;60361;-62
2024/01/16 09:06:57;;;;;;;11.40;3.50;;;;;;;2.84;44.27;98799.46;105749;1260;77123;-67
2024/01/16 09:09:25;;;;;;;6.50;1.90;;;;;;;2.87;43.86;98801.33;105065;1258;70949;-65
2024/01/16 09:11:53;;;;;;;5.80;2.50;;;;;;;2.88;43.44;98806.25;105742;1260;71509;-67
2024/01/16 09:14:20;;;;;;;5.50;1.90;;;;;;;2.87;43.41;98805.98;105111;1260;60499;-68
2024/01/16 09:16:48;;;;;;;6.30;1.80;;;;;;;2.88;43.48;98799.88;105105;1270;60770;-70
2024/01/16 09:19:16;;;;;;;7.10;2.80;;;;;;;2.94;43.64;98805.97;105230;1260;73992;-69
2024/01/16 09:21:44;;;;;;;4.70;1.60;;;;;;;3.01;43.99;98800.23;105135;1260;68367;-66
2024/01/16 09:24:12;;;;;;;7.40;3.00;;;;;;;3.05;44.09;98805.52;105309;1260;71887;-69
2024/01/16 09:26:40;;;;;;;7.80;2.60;;;;;;;3.05;44.37;98808.15;105082;1260;60480;-61
2024/01/16 09:29:09;;;;;;;7.90;2.90;;;;;;;3.06;44.48;98804.27;105058;1256;61162;-69
2024/01/16 09:31:37;;;;;;;6.70;2.40;;;;;;;3.07;44.49;98804.53;105425;1260;74212;-65
2024/01/16 09:34:05;;;;;;;7.10;2.60;;;;;;;3.08;44.51;98804.99;105160;1260;69376;-66
2024/01/16 09:36:36;;;;;;;5.10;2.10;;;;;;;3.06;44.65;98815.20;105412;1260;64630;-67
2024/01/16 09:39:10;;;;;;;6.60;2.50;;;;;;;2.91;44.22;98814.38;105372;1256;60568;-63
2024/01/16 09:41:38;;;;;;;7.00;2.60;;;;;;;2.90;44.43;98809.78;105302;1257;61648;-62
2024/01/16 09:44:05;;;;;;;6.20;2.50;;;;;;;2.82;44.23;98816.23;105192;1260;73956;-62
2024/01/16 09:46:34;;;;;;;9.20;2.20;;;;;;;2.74;44.13;98823.91;105095;1264;68724;-67
2024/01/16 09:49:04;;;;;;;4.40;2.10;;;;;;;2.69;44.04;98818.02;105000;1260;72765;-65
2024/01/16 09:51:32;;;;;;;5.60;2.20;;;;;;;2.65;44.27;98820.38;105062;1261;60476;-62
2024/01/16 09:54:01;;;;;;;7.10;2.90;;;;;;;2.58;43.97;98823.14;105059;1257;60568;-63
2024/01/16 09:56:29;;;;;;;16.70;5.90;;;;;;;2.51;44.52;98818.65;105781;1257;63792;-65
2024/01/16 09:58:59;;;;;;;8.20;2.60;;;;;;;2.44;44.67;98821.41;105574;1257;68988;-60
2024/01/16 10:01:28;;;;;;;10.90;4.20;;;;;;;2.35;44.79;98824.41;105744;1260;74861;-61
2024/01/16 10:03:55;;;;;;;8.70;3.40;;;;;;;2.38;44.80;98823.52;105779;1257;60406;-65
2024/01/16 10:06:23;;;;;;;7.20;2.60;;;;;;;2.44;44.62;98828.85;105009;1257;60634;-66
2024/01/16 10:08:51;;;;;;;4.90;1.90;;;;;;;2.46;43.92;98835.47;105837;1259;74022;-66
2024/01/16 10:11:19;;;;;;;4.70;1.90;;;;;;;2.49;43.89;98830.02;104865;1257;70723;-62
2024/01/16 10:13:47;;;;;;;6.30;2.10;;;;;;;2.56;44.14;98829.33;105043;1256;73777;-65
2024/01/16 10:16:16;;;;;;;11.80;3.10;;;;;;;2.63;44.33;98834.25;104859;1257;60966;-66
2024/01/16 10:18:44;;;;;;;6.50;3.00;;;;;;;2.71;44.38;98839.55;105142;1260;62176;-68
2024/01/16 10:21:22;;;;;;;6.90;3.00;;;;;;;2.73;44.30;98845.80;105121;1256;73957;-64
2024/01/16 10:23:50;;;;;;;7.10;2.40;;;;;;;2.78;44.49;98838.31;105941;1260;71926;-61
2024/01/16 10:26:18;;;;;;;7.40;2.30;;;;;;;2.77;44.15;98843.77;106588;1258;73037;-64
2024/01/16 10:28:46;;;;;;;6.90;2.90;;;;;;;2.77;44.18;98842.88;105870;1256;60540;-64
2024/01/16 10:31:14;;;;;;;6.10;2.40;;;;;;;2.81;44.18;98845.21;105303;1260;61415;-71
2024/01/16 10:33:42;;;;;;;7.10;2.80;;;;;;;2.84;43.28;98846.39;105501;1260;74221;-69
2024/01/16 10:36:16;;;;;;;5.30;2.20;;;;;;;2.89;42.86;98847.75;105168;1258;69222;-63
2024/01/16 10:38:44;;;;;;;6.00;2.20;;;;;;;2.91;42.34;98860.95;105214;1260;71507;-66
2024/01/16 10:41:14;;;;;;;6.20;1.70;;;;;;;2.93;41.90;98858.01;105267;1260;60450;-61
2024/01/16 10:43:46;;;;;;;4.50;1.40;;;;;;;2.93;41.71;98858.05;105213;1256;62410;-64
2024/01/16 10:46:15;;;;;;;4.80;2.00;;;;;;;2.94;41.90;98854.13;105113;1256;72703;-60
2024/01/16 10:48:44;;;;;;;6.20;2.00;;;;;;;3.01;42.06;98874.78;105156;1260;69689;-59
2024/01/16 10:51:16;;;;;;;4.20;1.50;;;;;;;3.05;42.14;98872.94;108933;1256;71568;-60
2024/01/16 10:53:46;;;;;;;6.60;1.60;;;;;;;3.04;42.09;98867.81;105096;1256;61848;-56
2024/01/16 10:56:47;;;;;;;4.40;1.50;;;;;;;3.02;42.18;98876.44;105076;1257;231305;-56
2024/01/16 11:00:36;;;;;;;5.80;1.40;;;;;;;2.58;43.13;98872.66;102258;1297;601051;-60
2024/01/16 11:03:09;;;;;;;7.20;2.00;;;;;;;2.88;42.82;98878.65;104328;1266;61484;-60
2024/01/16 11:05:37;;;;;;;6.00;2.20;;;;;;;2.97;42.68;98883.69;104473;1272;60191;-58
2024/01/16 11:08:05;;;;;;;5.90;2.10;;;;;;;3.04;42.48;98898.98;104243;1267;72746;-56
2024/01/16 11:10:34;;;;;;;4.30;1.70;;;;;;;3.03;42.59;98901.30;104676;1268;68525;-59
2024/01/16 11:13:03;;;;;;;5.40;1.80;;;;;;;2.96;42.85;98897.34;104720;1267;75286;-60
2024/01/16 11:15:31;;;;;;;4.80;1.60;;;;;;;2.88;43.41;98908.09;104737;1266;59735;-57
2024/01/16 11:17:59;;;;;;;6.40;2.50;;;;;;;2.78;43.33;98903.77;104453;1270;59476;-60
2024/01/16 11:20:27;;;;;;;9.10;1.90;;;;;;;2.69;43.01;98904.45;104438;1270;64191;-59
2024/01/16 11:23:15;;;;;;;4.40;1.60;;;;;;;2.55;42.84;98916.35;104523;1264;72272;-60
2024/01/16 11:25:43;;;;;;;7.10;2.90;;;;;;;2.51;43.15;98906.55;104588;1266;64556;-59
2024/01/16 11:28:14;;;;;;;3.70;1.00;;;;;;;2.48;43.10;98908.37;104550;1270;59615;-61
2024/01/16 11:30:45;;;;;;;5.70;2.10;;;;;;;2.50;43.45;98913.25;104546;1265;61015;-62
2024/01/16 11:33:33;;;;;;;9.30;2.10;;;;;;;2.54;43.64;98919.64;104686;1270;64269;-62